Airfield :







YOU CAN JOIN US ON...

 
LOGIN :

Register | Disclaimer

   EN    FR    IT 

 









Legend :    VFR   Marginal VFR   IFR   Intensive IFR   Very Intensive IFR
Visi :
Ceiling :
>= 8 km
>= 3000ft
5 to 8 km
1000 to 3000 ft
1500m to 5 km
500 to 1000 ft
800 to 1500m
200 to 500 ft
< 800m
< 200 ft
Symbols :   Thunderstorms  Fog  Heavy snow  Heavy precipitations  Wind > 20 kt






- Airport Elevation : 232 ft
- IATA code : YQM


CYQM - Greater Moncton International

CURRENT METAR :
  • 240400Z 23009KT 15SM FEW220 12/10 A2954 RMK CI2 SLP008 DENSITY ALT 400FT

EXPIRED METARs :
  • 240300Z 22009KT 15SM SCT220 13/10 A2953 RMK CI3 SLP002 DENSITY ALT 500FT
  • 240200Z 23010KT 15SM BKN220 12/10 A2951 RMK CI5 SLP995 DENSITY ALT 500FT

TAF TAF CYQM
Valid from the 24 at 00:00 until the 25 at 00:00 UTC


232339Z 2400/2424 23007KT P6SM SCT050 BKN080
FM240100 28008KT P6SM FEW090 BKN180
FM240200 27007KT P6SM FEW180
FM241500 27012KT P6SM FEW030
FM242000 26012KT P6SM SCT030
TEMPO 2420/2424 P6SM -SHRA BKN030
BECMG 2421/2423 26005KT RMK NXT FCST BY 240600Z
CZQM FIR / North America



MET'MAP, your aeronautical weather chart ! - Copyright ORBIFLY December 2007 - Disclaimer

ORBIFLY MET'MAP TEAM :

Programming & Development : Alexandra Zaïnal
Concept & original design : Baudouin d'Aumeries
Assistance for programming : Marc-Olivier Méhu
Technical & hardware support : Manuel Goepfert

Contact : metmap@orbifly.com




SOURCES & CREDITS :

   NOAA